createdAt,value
2019-04-16T00:02:44.434Z,74.74
2019-04-16T00:05:27.487Z,74.58
2019-04-16T00:08:02.265Z,74.45
2019-04-16T00:10:56.830Z,74.98
2019-04-16T00:13:39.353Z,75.43
2019-04-16T00:16:12.671Z,75.70
2019-04-16T00:18:40.788Z,75.79
2019-04-16T00:21:22.735Z,75.92
2019-04-16T00:24:20.765Z,75.81
2019-04-16T00:26:58.074Z,75.84
2019-04-16T00:29:25.094Z,75.75
2019-04-16T00:31:58.058Z,75.74
2019-04-16T00:34:27.375Z,75.85
2019-04-16T00:36:59.354Z,75.76
2019-04-16T00:39:29.414Z,76.02
2019-04-16T00:41:59.131Z,76.38
2019-04-16T00:44:30.289Z,76.42
2019-04-16T00:46:59.723Z,76.43
2019-04-16T00:49:29.131Z,76.50
2019-04-16T00:51:58.522Z,76.64
2019-04-16T00:54:27.852Z,76.70
2019-04-16T00:56:57.135Z,76.75
2019-04-16T00:59:27.486Z,76.83
2019-04-16T01:01:57.092Z,77.05
2019-04-16T01:04:26.657Z,77.22
2019-04-16T01:06:56.295Z,77.49
2019-04-16T01:09:25.865Z,77.92
2019-04-16T01:11:55.529Z,78.01
2019-04-16T01:14:26.761Z,78.09
2019-04-16T01:16:56.104Z,78.36
2019-04-16T01:19:25.477Z,78.60
2019-04-16T01:21:54.772Z,78.80
2019-04-16T01:24:24.009Z,79.19
2019-04-16T01:26:55.372Z,79.39
2019-04-16T01:29:24.430Z,79.55
2019-04-16T01:32:12.069Z,79.79
2019-04-16T01:34:51.280Z,80.13
2019-04-16T01:37:41.610Z,80.29
2019-04-16T01:40:11.795Z,80.48
2019-04-16T01:42:41.113Z,80.83
2019-04-16T01:45:10.433Z,80.93
2019-04-16T01:47:39.743Z,81.08
2019-04-16T01:50:12.925Z,81.32
2019-04-16T01:52:40.138Z,81.56
2019-04-16T01:55:09.492Z,81.58
2019-04-16T01:57:39.333Z,81.76
2019-04-16T02:00:09.505Z,81.91
2019-04-16T02:02:38.742Z,82.36
2019-04-16T02:05:08.302Z,82.29
2019-04-16T02:07:37.727Z,82.39
2019-04-16T02:10:08.000Z,82.59
2019-04-16T02:12:37.503Z,82.91
2019-04-16T02:15:07.680Z,82.92
2019-04-16T02:17:37.061Z,83.24
2019-04-16T02:20:07.408Z,83.32
2019-04-16T02:22:36.961Z,83.37
2019-04-16T02:25:07.262Z,83.45
2019-04-16T02:27:37.971Z,83.60
2019-04-16T02:30:07.401Z,83.77
2019-04-16T02:32:36.720Z,84.14
2019-04-16T02:35:06.800Z,84.06
2019-04-16T02:37:37.647Z,84.07
2019-04-16T02:40:07.171Z,84.05
2019-04-16T02:42:36.988Z,84.26
2019-04-16T02:45:06.483Z,84.60
2019-04-16T02:47:39.682Z,84.62
2019-04-16T02:50:09.739Z,84.61
2019-04-16T02:53:01.120Z,84.76
2019-04-16T02:55:42.581Z,84.87
2019-04-16T02:58:34.027Z,85.06
2019-04-16T03:01:20.875Z,85.28
2019-04-16T03:03:56.565Z,85.67
2019-04-16T03:06:25.912Z,85.62
2019-04-16T03:08:55.362Z,85.80
2019-04-16T03:11:24.688Z,86.02
2019-04-16T03:13:58.251Z,85.85
2019-04-16T03:16:48.065Z,85.83
2019-04-16T03:19:21.287Z,85.71
2019-04-16T03:21:50.561Z,85.90
2019-04-16T03:24:19.989Z,86.12
2019-04-16T03:26:50.425Z,86.15
2019-04-16T03:29:20.596Z,86.35
2019-04-16T03:31:57.529Z,86.26
2019-04-16T03:34:22.108Z,86.79
2019-04-16T03:36:52.175Z,86.75
2019-04-16T03:39:21.466Z,86.62
2019-04-16T03:41:55.963Z,86.50
2019-04-16T03:44:21.950Z,86.54
2019-04-16T03:46:51.291Z,86.59
2019-04-16T03:49:20.872Z,86.81
2019-04-16T03:51:50.233Z,87.02
2019-04-16T03:54:22.430Z,87.17
2019-04-16T03:56:50.514Z,87.04
2019-04-16T03:59:19.852Z,87.25
2019-04-16T04:01:49.562Z,87.12
2019-04-16T04:04:18.950Z,87.37
2019-04-16T04:06:48.268Z,87.46
2019-04-16T04:09:18.836Z,87.51
2019-04-16T04:11:48.709Z,87.57
2019-04-16T04:14:22.118Z,87.65
2019-04-16T04:16:49.176Z,87.71
2019-04-16T04:19:18.500Z,87.95
2019-04-16T04:21:50.585Z,88.01
2019-04-16T04:24:19.012Z,88.17
2019-04-16T04:26:48.722Z,88.11
2019-04-16T04:29:20.742Z,88.24
2019-04-16T04:31:49.170Z,88.42
2019-04-16T04:34:18.798Z,88.42
2019-04-16T04:36:48.467Z,88.37
2019-04-16T04:39:18.040Z,88.58
2019-04-16T04:41:47.435Z,88.52
2019-04-16T04:44:18.632Z,88.68
2019-04-16T04:46:47.969Z,88.88
2019-04-16T04:49:17.666Z,89.14
2019-04-16T04:51:47.367Z,88.99
2019-04-16T04:54:22.818Z,89.61
2019-04-16T04:56:50.667Z,89.50
2019-04-16T04:59:20.082Z,89.43
2019-04-16T05:01:49.498Z,89.55
2019-04-16T05:04:36.194Z,89.56
2019-04-16T05:07:07.579Z,89.76
2019-04-16T05:09:36.966Z,90.91
2019-04-16T05:12:08.345Z,90.79
2019-04-16T05:14:40.989Z,90.25
2019-04-16T05:17:10.329Z,90.16
2019-04-16T05:19:39.659Z,90.10
2019-04-16T05:22:09.347Z,90.95
2019-04-16T05:24:38.945Z,91.23
2019-04-16T05:27:09.369Z,91.34
2019-04-16T05:29:38.787Z,91.18
2019-04-16T05:32:08.121Z,89.99
2019-04-16T05:34:38.465Z,89.48
2019-04-16T05:37:07.998Z,89.90
2019-04-16T05:39:37.385Z,89.22
2019-04-16T05:42:06.833Z,88.16
2019-04-16T05:44:36.182Z,88.37
2019-04-16T05:47:05.550Z,88.37
2019-04-16T05:49:34.933Z,87.87
2019-04-16T05:52:05.324Z,87.36
2019-04-16T05:54:53.648Z,87.04
2019-04-16T05:57:27.828Z,87.21
2019-04-16T05:59:57.087Z,86.56
2019-04-16T06:02:51.467Z,86.49
2019-04-16T06:05:21.016Z,86.00
2019-04-16T06:07:50.348Z,85.91
2019-04-16T06:10:19.911Z,85.15
2019-04-16T06:13:11.987Z,85.20
2019-04-16T06:15:46.395Z,84.20
2019-04-16T06:18:49.689Z,84.24
2019-04-16T06:21:40.467Z,83.98
2019-04-16T06:24:21.317Z,83.50
2019-04-16T06:27:08.494Z,83.12
2019-04-16T06:29:48.074Z,81.36
2019-04-16T06:32:28.106Z,81.89
2019-04-16T06:35:25.168Z,80.95
2019-04-16T06:38:04.510Z,80.48
2019-04-16T06:40:47.488Z,78.93
2019-04-16T06:43:25.229Z,76.83
2019-04-16T06:46:13.793Z,76.23
2019-04-16T06:48:58.914Z,75.65
2019-04-16T06:51:43.592Z,74.57
2019-04-16T06:54:46.283Z,74.29
2019-04-16T06:57:43.884Z,73.67
2019-04-16T07:00:44.323Z,72.62
2019-04-16T07:03:38.474Z,72.16
2019-04-16T07:06:35.923Z,71.10
2019-04-16T07:09:25.784Z,70.99
2019-04-16T07:11:55.850Z,70.99
2019-04-16T07:14:25.236Z,70.39
2019-04-16T07:16:54.492Z,69.68
2019-04-16T07:19:25.438Z,70.14
2019-04-16T07:21:54.764Z,69.10
2019-04-16T07:24:30.112Z,68.32
2019-04-16T07:26:56.649Z,66.61
2019-04-16T07:29:32.673Z,66.71
2019-04-16T07:32:32.113Z,66.05
2019-04-16T07:35:18.993Z,65.72
2019-04-16T07:38:07.453Z,64.69
2019-04-16T07:40:54.537Z,63.16
2019-04-16T07:43:41.449Z,62.70
2019-04-16T07:46:38.880Z,62.26
2019-04-16T07:49:18.473Z,62.26
2019-04-16T07:52:07.266Z,62.04
2019-04-16T07:54:54.032Z,60.40
2019-04-16T07:57:23.411Z,60.25
2019-04-16T07:59:52.717Z,59.91
2019-04-16T08:02:22.494Z,60.07
2019-04-16T08:04:51.874Z,59.46
2019-04-16T08:07:21.413Z,59.14
2019-04-16T08:09:50.677Z,58.62
2019-04-16T08:12:30.045Z,58.34
2019-04-16T08:14:51.129Z,58.15
2019-04-16T08:17:20.979Z,58.34
2019-04-16T08:19:50.278Z,58.67
2019-04-16T08:22:19.702Z,60.19
2019-04-16T08:24:57.607Z,59.70
2019-04-16T08:27:24.387Z,59.45
2019-04-16T08:29:53.820Z,58.45
2019-04-16T08:32:25.759Z,59.70
2019-04-16T08:34:54.215Z,59.38
2019-04-16T08:37:23.549Z,59.12
2019-04-16T08:39:52.900Z,58.91
2019-04-16T08:42:25.231Z,57.51
2019-04-16T08:44:53.151Z,57.67
2019-04-16T08:47:22.410Z,58.59
2019-04-16T08:49:54.144Z,57.01
2019-04-16T08:52:23.007Z,58.60
2019-04-16T08:54:54.870Z,58.75
2019-04-16T08:57:23.436Z,57.23
2019-04-16T08:59:52.692Z,56.92
2019-04-16T09:02:23.504Z,58.49
2019-04-16T09:04:52.970Z,55.63
2019-04-16T09:07:40.462Z,56.44
2019-04-16T09:10:19.091Z,57.48
2019-04-16T09:12:47.603Z,57.03
2019-04-16T09:15:22.607Z,55.53
2019-04-16T09:18:00.392Z,55.81
2019-04-16T09:20:38.553Z,56.55
2019-04-16T09:23:07.874Z,56.27
2019-04-16T09:25:46.681Z,58.19
2019-04-16T09:28:25.820Z,56.53
2019-04-16T09:31:08.663Z,57.08
2019-04-16T09:33:59.051Z,56.55
2019-04-16T09:36:40.756Z,55.65
2019-04-16T09:39:34.889Z,55.42
2019-04-16T09:42:04.411Z,55.04
2019-04-16T09:44:35.525Z,54.47
2019-04-16T09:47:05.372Z,55.11
2019-04-16T09:49:37.613Z,54.47
2019-04-16T09:52:06.015Z,53.60
2019-04-16T09:54:35.539Z,52.48
2019-04-16T09:57:05.004Z,54.27
2019-04-16T09:59:47.659Z,54.54
2019-04-16T10:02:24.008Z,54.14
2019-04-16T10:04:53.378Z,53.47
2019-04-16T10:07:22.680Z,53.84
2019-04-16T10:09:54.501Z,54.09
2019-04-16T10:12:23.186Z,53.10
2019-04-16T10:14:52.442Z,53.04
2019-04-16T10:17:21.802Z,52.97
2019-04-16T10:19:51.093Z,52.01
2019-04-16T10:22:21.810Z,53.05
2019-04-16T10:25:05.324Z,52.35
2019-04-16T10:27:45.730Z,52.00
2019-04-16T10:30:23.712Z,51.78
2019-04-16T10:32:52.962Z,53.25
2019-04-16T10:35:22.713Z,52.62
2019-04-16T10:37:52.040Z,50.66
2019-04-16T10:40:38.400Z,52.79
2019-04-16T10:43:25.280Z,51.77
2019-04-16T10:46:25.560Z,52.93
2019-04-16T10:49:16.786Z,49.91
2019-04-16T10:52:04.920Z,50.31
2019-04-16T10:54:41.880Z,51.30
2019-04-16T10:57:28.643Z,50.89
2019-04-16T11:00:25.631Z,51.19
2019-04-16T11:03:03.022Z,50.34
2019-04-16T11:05:42.875Z,48.76
2019-04-16T11:08:12.990Z,50.47
2019-04-16T11:10:42.235Z,48.62
2019-04-16T11:13:16.730Z,47.87
2019-04-16T11:15:46.023Z,46.93
2019-04-16T11:18:15.258Z,46.18
2019-04-16T11:20:44.665Z,45.67
2019-04-16T11:23:14.045Z,44.61
2019-04-16T11:25:43.211Z,44.35
2019-04-16T11:28:14.268Z,44.15
2019-04-16T11:30:48.735Z,43.45
2019-04-16T11:33:17.677Z,46.11
2019-04-16T11:35:46.941Z,44.91
2019-04-16T11:38:17.664Z,44.44
2019-04-16T11:40:47.313Z,43.29
2019-04-16T11:43:16.713Z,43.42
2019-04-16T11:45:46.111Z,42.78
2019-04-16T11:48:15.407Z,42.60
2019-04-16T11:50:44.843Z,43.90
2019-04-16T11:53:14.560Z,44.88
2019-04-16T11:55:44.030Z,44.84
2019-04-16T11:58:36.953Z,44.46
2019-04-16T12:01:16.899Z,44.39
2019-04-16T12:04:02.612Z,43.95
2019-04-16T12:06:42.122Z,43.08
2019-04-16T12:09:28.700Z,42.16
2019-04-16T12:12:03.071Z,42.56
2019-04-16T12:14:59.160Z,42.02
2019-04-16T12:17:36.309Z,40.62
2019-04-16T12:20:32.526Z,41.51
2019-04-16T12:23:08.426Z,42.06
2019-04-16T12:25:44.713Z,41.33
2019-04-16T12:28:27.469Z,39.56
2019-04-16T12:31:11.637Z,38.66
2019-04-16T12:33:52.302Z,38.84
2019-04-16T12:36:32.412Z,37.41
2019-04-16T12:39:19.567Z,37.13
2019-04-16T12:42:16.298Z,38.23
2019-04-16T12:44:51.782Z,37.76
2019-04-16T12:47:52.157Z,38.17
2019-04-16T12:50:43.461Z,39.03
2019-04-16T12:53:36.175Z,38.07
2019-04-16T12:56:24.636Z,38.33
2019-04-16T12:59:12.974Z,37.09
2019-04-16T13:02:14.330Z,35.42
2019-04-16T13:05:08.599Z,29.48
2019-04-16T13:07:51.239Z,24.07
2019-04-16T13:10:33.065Z,24.30
2019-04-16T13:13:13.437Z,21.88
2019-04-16T13:15:50.461Z,23.17
2019-04-16T13:18:24.003Z,22.22
2019-04-16T13:21:21.404Z,20.95
2019-04-16T13:24:12.581Z,22.24
2019-04-16T13:26:59.196Z,19.76
2019-04-16T13:29:30.691Z,20.19
2019-04-16T13:32:00.043Z,18.89
2019-04-16T13:34:29.446Z,16.91
2019-04-16T13:36:59.680Z,15.43
2019-04-16T13:39:46.468Z,15.06
2019-04-16T13:42:15.808Z,14.92
2019-04-16T13:44:55.551Z,14.43
2019-04-16T13:47:24.958Z,14.40
2019-04-16T13:50:04.224Z,13.59
2019-04-16T13:52:33.353Z,13.61
2019-04-16T13:55:17.693Z,12.52
2019-04-16T13:58:02.219Z,14.46
2019-04-16T14:00:37.136Z,13.44
2019-04-16T14:03:12.106Z,13.18
2019-04-16T14:05:42.763Z,12.65
2019-04-16T14:08:12.158Z,13.33
2019-04-16T14:10:43.357Z,12.66
2019-04-16T14:13:13.732Z,12.66
2019-04-16T14:15:44.862Z,12.79
2019-04-16T14:18:14.271Z,12.68
2019-04-16T14:20:43.689Z,12.55
2019-04-16T14:23:12.948Z,11.63
2019-04-16T14:25:42.725Z,12.35
2019-04-16T14:28:12.431Z,13.82
2019-04-16T14:30:45.713Z,13.51
2019-04-16T14:33:19.238Z,12.48
2019-04-16T14:35:48.642Z,13.13
2019-04-16T14:38:23.134Z,12.58
2019-04-16T14:40:52.458Z,11.84
2019-04-16T14:43:29.174Z,12.84
2019-04-16T14:45:59.786Z,12.64
2019-04-16T14:48:27.912Z,12.23
2019-04-16T14:50:57.171Z,11.83
2019-04-16T14:53:34.275Z,12.49
2019-04-16T14:56:25.682Z,12.56
2019-04-16T14:59:03.432Z,12.91
2019-04-16T15:01:57.414Z,12.37
2019-04-16T15:04:32.243Z,12.27
2019-04-16T15:07:19.122Z,10.67
2019-04-16T15:10:13.421Z,11.92
2019-04-16T15:12:50.239Z,11.47
2019-04-16T15:15:23.669Z,10.73
2019-04-16T15:17:59.922Z,10.93
2019-04-16T15:20:51.401Z,11.20
2019-04-16T15:24:01.361Z,10.73
2019-04-16T15:26:54.210Z,10.44
2019-04-16T15:29:39.040Z,11.75
2019-04-16T15:32:27.242Z,11.23
2019-04-16T15:34:56.992Z,11.75
2019-04-16T15:37:48.252Z,11.33
2019-04-16T15:40:40.314Z,10.98
2019-04-16T15:43:27.408Z,11.83
2019-04-16T15:46:26.234Z,12.47
2019-04-16T15:49:11.965Z,12.80
2019-04-16T15:51:56.939Z,13.09
2019-04-16T15:54:43.585Z,13.15
2019-04-16T15:57:31.923Z,13.70
2019-04-16T16:00:09.399Z,15.10
2019-04-16T16:03:09.658Z,15.10
2019-04-16T16:05:53.086Z,16.52
2019-04-16T16:08:36.313Z,17.51
2019-04-16T16:11:09.467Z,17.19
2019-04-16T16:13:38.847Z,17.53
2019-04-16T16:16:10.453Z,17.73
2019-04-16T16:18:39.819Z,17.94
2019-04-16T16:21:09.163Z,19.30
2019-04-16T16:23:38.511Z,19.92
2019-04-16T16:26:07.782Z,20.23
2019-04-16T16:28:37.253Z,20.37
2019-04-16T16:31:06.671Z,21.62
2019-04-16T16:33:35.977Z,19.69
2019-04-16T16:36:05.291Z,20.97
2019-04-16T16:38:34.707Z,20.79
2019-04-16T16:41:03.981Z,20.39
2019-04-16T16:43:33.329Z,20.14
2019-04-16T16:46:08.780Z,20.65
2019-04-16T16:48:38.534Z,20.77
2019-04-16T16:51:07.889Z,21.61
2019-04-16T16:54:02.272Z,22.14
2019-04-16T16:57:08.877Z,22.92
2019-04-16T16:59:58.300Z,23.50
2019-04-16T17:02:43.704Z,23.49
2019-04-16T17:05:17.474Z,24.54
2019-04-16T17:07:46.761Z,25.03
2019-04-16T17:10:16.081Z,25.66
2019-04-16T17:12:45.537Z,26.72
2019-04-16T17:15:15.119Z,27.01
2019-04-16T17:17:44.513Z,29.08
2019-04-16T17:20:13.839Z,29.97
2019-04-16T17:22:43.201Z,30.47
2019-04-16T17:25:12.570Z,31.07
2019-04-16T17:27:51.056Z,31.14
2019-04-16T17:30:13.720Z,31.48
2019-04-16T17:32:43.060Z,31.89
2019-04-16T17:35:15.404Z,32.49
2019-04-16T17:37:43.673Z,33.00
2019-04-16T17:40:29.272Z,33.66
2019-04-16T17:43:02.849Z,34.42
2019-04-16T17:45:46.247Z,35.16
2019-04-16T17:48:43.393Z,35.91
2019-04-16T17:51:26.483Z,36.55
2019-04-16T17:54:14.669Z,37.36
2019-04-16T17:57:01.570Z,38.29
2019-04-16T17:59:43.242Z,38.93
2019-04-16T18:02:40.050Z,39.83
2019-04-16T18:05:28.330Z,41.13
2019-04-16T18:08:19.431Z,42.00
2019-04-16T18:11:10.849Z,42.25
2019-04-16T18:14:10.451Z,42.75
2019-04-16T18:16:41.307Z,43.88
2019-04-16T18:19:18.190Z,44.51
2019-04-16T18:21:54.526Z,44.87
2019-04-16T18:24:41.501Z,45.34
2019-04-16T18:27:25.541Z,46.03
2019-04-16T18:30:13.435Z,46.56
2019-04-16T18:33:07.236Z,46.92
2019-04-16T18:35:40.672Z,47.16
2019-04-16T18:38:15.858Z,47.76
2019-04-16T18:40:49.679Z,48.37
2019-04-16T18:43:47.231Z,49.04
2019-04-16T18:46:30.134Z,49.15
2019-04-16T18:49:07.547Z,49.89
2019-04-16T18:51:36.914Z,50.74
2019-04-16T18:54:06.409Z,50.43
2019-04-16T18:56:35.979Z,50.69
2019-04-16T18:59:05.718Z,50.62
2019-04-16T19:01:35.746Z,50.84
2019-04-16T19:04:05.760Z,50.61
2019-04-16T19:06:35.680Z,50.76
2019-04-16T19:09:07.234Z,51.03
2019-04-16T19:11:36.996Z,51.39
2019-04-16T19:14:09.766Z,51.80
2019-04-16T19:16:38.078Z,52.64
2019-04-16T19:19:07.821Z,52.63
2019-04-16T19:21:37.427Z,52.52
2019-04-16T19:24:07.029Z,52.52
2019-04-16T19:26:36.786Z,52.66
2019-04-16T19:29:13.318Z,53.02
2019-04-16T19:31:40.281Z,53.34
2019-04-16T19:34:10.691Z,53.66
2019-04-16T19:36:42.662Z,53.96
2019-04-16T19:39:15.178Z,54.41
2019-04-16T19:41:43.890Z,54.75
2019-04-16T19:44:13.619Z,54.88
2019-04-16T19:46:45.988Z,55.16
2019-04-16T19:49:14.939Z,55.36
2019-04-16T19:51:44.711Z,55.68
2019-04-16T19:54:14.399Z,56.01
2019-04-16T19:56:43.993Z,56.62
2019-04-16T19:59:13.600Z,56.97
2019-04-16T20:01:43.399Z,57.05
2019-04-16T20:04:13.139Z,57.23
2019-04-16T20:06:44.976Z,57.37
2019-04-16T20:09:14.633Z,57.57
2019-04-16T20:11:44.923Z,57.78
2019-04-16T20:14:14.454Z,57.78
2019-04-16T20:16:46.646Z,57.79
2019-04-16T20:19:16.202Z,58.00
2019-04-16T20:21:45.859Z,58.36
2019-04-16T20:24:15.122Z,58.62
2019-04-16T20:26:48.937Z,58.77
2019-04-16T20:29:18.472Z,59.67
2019-04-16T20:31:47.817Z,59.53
2019-04-16T20:34:18.193Z,58.78
2019-04-16T20:36:47.778Z,58.42
2019-04-16T20:39:17.062Z,58.38
2019-04-16T20:41:52.724Z,58.62
2019-04-16T20:44:19.187Z,58.68
2019-04-16T20:46:48.516Z,58.44
2019-04-16T20:49:17.772Z,58.37
2019-04-16T20:51:47.133Z,58.48
2019-04-16T20:54:16.332Z,58.68
2019-04-16T20:56:45.607Z,59.02
2019-04-16T20:59:14.887Z,59.20
2019-04-16T21:01:46.061Z,59.46
2019-04-16T21:04:15.389Z,59.72
2019-04-16T21:06:44.678Z,59.96
2019-04-16T21:09:14.018Z,60.20
2019-04-16T21:11:43.403Z,60.50
2019-04-16T21:14:12.995Z,60.92
2019-04-16T21:16:42.302Z,61.37
2019-04-16T21:19:22.837Z,61.90
2019-04-16T21:21:42.813Z,62.29
2019-04-16T21:24:13.692Z,62.76
2019-04-16T21:26:43.172Z,63.16
2019-04-16T21:29:26.138Z,63.58
2019-04-16T21:31:59.385Z,63.86
2019-04-16T21:34:40.980Z,64.20
2019-04-16T21:37:41.413Z,64.54
2019-04-16T21:40:10.894Z,64.87
2019-04-16T21:42:40.201Z,65.30
2019-04-16T21:45:09.991Z,65.61
2019-04-16T21:47:39.355Z,65.97
2019-04-16T21:50:09.174Z,66.36
2019-04-16T21:52:38.535Z,66.79
2019-04-16T21:55:08.271Z,67.08
2019-04-16T21:57:37.557Z,67.52
2019-04-16T22:00:09.773Z,67.88
2019-04-16T22:02:39.799Z,68.29
2019-04-16T22:05:10.393Z,68.52
2019-04-16T22:07:39.634Z,68.79
2019-04-16T22:10:09.071Z,69.04
2019-04-16T22:12:38.385Z,69.34
2019-04-16T22:15:08.149Z,69.61
2019-04-16T22:17:37.474Z,69.92
2019-04-16T22:20:07.401Z,70.13
2019-04-16T22:22:36.651Z,70.36
2019-04-16T22:25:06.247Z,70.55
2019-04-16T22:27:36.868Z,70.88
2019-04-16T22:30:06.843Z,71.04
2019-04-16T22:32:36.184Z,71.18
2019-04-16T22:35:05.594Z,71.40
2019-04-16T22:37:35.038Z,71.64
2019-04-16T22:40:32.538Z,71.76
2019-04-16T22:43:20.834Z,71.96
2019-04-16T22:45:57.623Z,72.28
2019-04-16T22:48:26.913Z,72.32
2019-04-16T22:50:56.401Z,72.53
2019-04-16T22:53:25.762Z,72.69
2019-04-16T22:55:56.669Z,72.97
2019-04-16T22:58:46.204Z,73.13
2019-04-16T23:01:15.555Z,73.28
2019-04-16T23:03:44.960Z,73.48
2019-04-16T23:06:14.282Z,73.61
2019-04-16T23:08:44.302Z,73.74
2019-04-16T23:11:15.406Z,73.91
2019-04-16T23:13:44.783Z,74.04
2019-04-16T23:16:14.128Z,74.16
2019-04-16T23:18:43.411Z,74.42
2019-04-16T23:21:12.740Z,74.57
2019-04-16T23:23:42.098Z,74.90
2019-04-16T23:26:11.342Z,75.06
2019-04-16T23:28:42.495Z,75.33
2019-04-16T23:31:11.626Z,75.56
2019-04-16T23:33:40.968Z,75.67
2019-04-16T23:36:15.029Z,75.80
2019-04-16T23:38:42.307Z,75.97
2019-04-16T23:41:15.321Z,76.16
2019-04-16T23:44:15.721Z,76.37
2019-04-16T23:47:10.513Z,76.49
2019-04-16T23:49:46.045Z,76.67
2019-04-16T23:52:24.101Z,76.74
2019-04-16T23:55:05.546Z,76.88
2019-04-16T23:57:53.577Z,76.97
